sensor_id;sensor_type;location;lat;lon;timestamp;P1;durP1;ratioP1;P2;durP2;ratioP2
14874;SDS011;7529;48.170;17.138;2022-11-30T00:01:26;74.00;;;66.65;;
14874;SDS011;7529;48.170;17.138;2022-11-30T00:05:38;77.10;;;69.88;;
14874;SDS011;7529;48.170;17.138;2022-11-30T00:09:50;66.40;;;60.85;;
14874;SDS011;7529;48.170;17.138;2022-11-30T00:14:01;74.22;;;67.88;;
14874;SDS011;7529;48.170;17.138;2022-11-30T00:18:13;72.13;;;65.93;;
14874;SDS011;7529;48.170;17.138;2022-11-30T00:22:27;71.95;;;66.15;;
14874;SDS011;7529;48.170;17.138;2022-11-30T00:26:38;67.05;;;60.65;;
14874;SDS011;7529;48.170;17.138;2022-11-30T00:31:01;70.03;;;63.53;;
14874;SDS011;7529;48.170;17.138;2022-11-30T00:35:14;71.82;;;65.88;;
14874;SDS011;7529;48.170;17.138;2022-11-30T00:39:27;70.90;;;64.78;;
14874;SDS011;7529;48.170;17.138;2022-11-30T00:43:38;74.30;;;68.32;;
14874;SDS011;7529;48.170;17.138;2022-11-30T00:47:50;73.00;;;66.70;;
14874;SDS011;7529;48.170;17.138;2022-11-30T00:52:02;106.20;;;98.20;;
14874;SDS011;7529;48.170;17.138;2022-11-30T00:56:14;98.47;;;91.78;;
14874;SDS011;7529;48.170;17.138;2022-11-30T01:00:27;92.88;;;86.40;;
14874;SDS011;7529;48.170;17.138;2022-11-30T01:04:38;103.63;;;96.53;;
14874;SDS011;7529;48.170;17.138;2022-11-30T01:08:50;120.75;;;112.80;;
14874;SDS011;7529;48.170;17.138;2022-11-30T01:13:01;128.73;;;119.97;;
14874;SDS011;7529;48.170;17.138;2022-11-30T01:17:13;126.03;;;117.55;;
14874;SDS011;7529;48.170;17.138;2022-11-30T01:21:25;132.13;;;123.00;;
14874;SDS011;7529;48.170;17.138;2022-11-30T01:25:38;107.88;;;101.20;;
14874;SDS011;7529;48.170;17.138;2022-11-30T01:29:49;89.35;;;83.43;;
14874;SDS011;7529;48.170;17.138;2022-11-30T01:34:01;88.25;;;81.57;;
14874;SDS011;7529;48.170;17.138;2022-11-30T01:38:13;77.47;;;71.22;;
14874;SDS011;7529;48.170;17.138;2022-11-30T01:42:24;71.45;;;66.00;;
14874;SDS011;7529;48.170;17.138;2022-11-30T01:47:18;72.30;;;66.88;;
14874;SDS011;7529;48.170;17.138;2022-11-30T01:51:11;68.65;;;63.17;;
14874;SDS011;7529;48.170;17.138;2022-11-30T01:55:27;71.38;;;65.55;;
14874;SDS011;7529;48.170;17.138;2022-11-30T01:59:39;72.63;;;67.50;;
14874;SDS011;7529;48.170;17.138;2022-11-30T02:03:55;65.32;;;60.15;;
14874;SDS011;7529;48.170;17.138;2022-11-30T02:08:17;64.53;;;59.40;;
14874;SDS011;7529;48.170;17.138;2022-11-30T02:12:33;72.32;;;65.70;;
14874;SDS011;7529;48.170;17.138;2022-11-30T02:21:33;92.30;;;84.30;;
14874;SDS011;7529;48.170;17.138;2022-11-30T02:30:21;106.55;;;97.32;;
14874;SDS011;7529;48.170;17.138;2022-11-30T02:34:34;105.00;;;95.80;;
14874;SDS011;7529;48.170;17.138;2022-11-30T02:38:46;109.38;;;100.00;;
14874;SDS011;7529;48.170;17.138;2022-11-30T02:42:58;114.05;;;104.97;;
14874;SDS011;7529;48.170;17.138;2022-11-30T02:51:37;107.43;;;99.57;;
14874;SDS011;7529;48.170;17.138;2022-11-30T02:55:51;105.88;;;98.28;;
14874;SDS011;7529;48.170;17.138;2022-11-30T03:00:05;125.43;;;116.32;;
14874;SDS011;7529;48.170;17.138;2022-11-30T03:04:17;122.18;;;113.85;;
14874;SDS011;7529;48.170;17.138;2022-11-30T03:08:29;119.90;;;112.35;;
14874;SDS011;7529;48.170;17.138;2022-11-30T03:12:40;130.18;;;121.72;;
14874;SDS011;7529;48.170;17.138;2022-11-30T03:16:52;144.20;;;135.05;;
14874;SDS011;7529;48.170;17.138;2022-11-30T03:21:04;148.95;;;139.90;;
14874;SDS011;7529;48.170;17.138;2022-11-30T03:25:17;162.45;;;152.80;;
14874;SDS011;7529;48.170;17.138;2022-11-30T03:29:28;142.98;;;134.13;;
14874;SDS011;7529;48.170;17.138;2022-11-30T03:33:40;137.40;;;128.93;;
14874;SDS011;7529;48.170;17.138;2022-11-30T03:37:52;119.65;;;111.60;;
14874;SDS011;7529;48.170;17.138;2022-11-30T03:42:03;106.57;;;99.40;;
14874;SDS011;7529;48.170;17.138;2022-11-30T03:46:15;114.88;;;107.28;;
14874;SDS011;7529;48.170;17.138;2022-11-30T03:50:27;94.13;;;86.93;;
14874;SDS011;7529;48.170;17.138;2022-11-30T03:54:39;84.03;;;77.90;;
14874;SDS011;7529;48.170;17.138;2022-11-30T03:58:50;85.10;;;78.20;;
14874;SDS011;7529;48.170;17.138;2022-11-30T04:03:02;71.75;;;65.40;;
14874;SDS011;7529;48.170;17.138;2022-11-30T04:07:14;60.30;;;55.33;;
14874;SDS011;7529;48.170;17.138;2022-11-30T04:11:25;55.53;;;50.85;;
14874;SDS011;7529;48.170;17.138;2022-11-30T04:15:37;54.90;;;50.33;;
14874;SDS011;7529;48.170;17.138;2022-11-30T04:19:48;51.17;;;46.70;;
14874;SDS011;7529;48.170;17.138;2022-11-30T04:24:00;47.80;;;43.45;;
14874;SDS011;7529;48.170;17.138;2022-11-30T04:28:12;46.60;;;41.75;;
14874;SDS011;7529;48.170;17.138;2022-11-30T04:32:24;44.08;;;39.80;;
14874;SDS011;7529;48.170;17.138;2022-11-30T04:36:36;39.97;;;36.35;;
14874;SDS011;7529;48.170;17.138;2022-11-30T04:40:47;39.45;;;35.45;;
14874;SDS011;7529;48.170;17.138;2022-11-30T04:44:59;35.72;;;32.13;;
14874;SDS011;7529;48.170;17.138;2022-11-30T04:49:10;33.13;;;29.90;;
14874;SDS011;7529;48.170;17.138;2022-11-30T04:53:22;33.88;;;30.50;;
14874;SDS011;7529;48.170;17.138;2022-11-30T04:57:34;32.15;;;29.00;;
14874;SDS011;7529;48.170;17.138;2022-11-30T05:01:45;33.53;;;30.23;;
14874;SDS011;7529;48.170;17.138;2022-11-30T05:05:57;30.88;;;27.88;;
14874;SDS011;7529;48.170;17.138;2022-11-30T05:10:09;32.72;;;29.33;;
14874;SDS011;7529;48.170;17.138;2022-11-30T05:14:20;34.17;;;30.23;;
14874;SDS011;7529;48.170;17.138;2022-11-30T05:18:32;36.00;;;32.15;;
14874;SDS011;7529;48.170;17.138;2022-11-30T05:22:43;46.38;;;32.63;;
14874;SDS011;7529;48.170;17.138;2022-11-30T05:26:55;38.35;;;33.95;;
14874;SDS011;7529;48.170;17.138;2022-11-30T05:31:07;37.72;;;33.78;;
14874;SDS011;7529;48.170;17.138;2022-11-30T05:35:18;42.03;;;36.88;;
14874;SDS011;7529;48.170;17.138;2022-11-30T05:39:30;41.53;;;37.00;;
14874;SDS011;7529;48.170;17.138;2022-11-30T05:43:43;41.15;;;35.00;;
14874;SDS011;7529;48.170;17.138;2022-11-30T05:47:56;42.20;;;37.65;;
14874;SDS011;7529;48.170;17.138;2022-11-30T05:52:08;40.45;;;36.08;;
14874;SDS011;7529;48.170;17.138;2022-11-30T05:56:20;40.55;;;36.20;;
14874;SDS011;7529;48.170;17.138;2022-11-30T06:00:33;47.30;;;37.30;;
14874;SDS011;7529;48.170;17.138;2022-11-30T06:04:45;39.15;;;35.05;;
14874;SDS011;7529;48.170;17.138;2022-11-30T06:08:57;45.10;;;40.35;;
14874;SDS011;7529;48.170;17.138;2022-11-30T06:13:09;44.70;;;36.92;;
14874;SDS011;7529;48.170;17.138;2022-11-30T06:17:20;56.55;;;44.58;;
14874;SDS011;7529;48.170;17.138;2022-11-30T06:21:33;42.72;;;36.42;;
14874;SDS011;7529;48.170;17.138;2022-11-30T06:25:45;54.05;;;42.50;;
14874;SDS011;7529;48.170;17.138;2022-11-30T06:29:59;37.65;;;33.58;;
14874;SDS011;7529;48.170;17.138;2022-11-30T06:34:11;38.13;;;28.35;;
14874;SDS011;7529;48.170;17.138;2022-11-30T06:38:24;28.27;;;25.20;;
14874;SDS011;7529;48.170;17.138;2022-11-30T06:42:36;29.15;;;26.17;;
14874;SDS011;7529;48.170;17.138;2022-11-30T06:46:50;27.58;;;25.10;;
14874;SDS011;7529;48.170;17.138;2022-11-30T06:51:06;24.33;;;22.13;;
14874;SDS011;7529;48.170;17.138;2022-11-30T06:55:21;25.83;;;23.05;;
14874;SDS011;7529;48.170;17.138;2022-11-30T06:59:34;25.77;;;22.85;;
14874;SDS011;7529;48.170;17.138;2022-11-30T07:03:51;26.77;;;24.02;;
14874;SDS011;7529;48.170;17.138;2022-11-30T07:08:03;26.75;;;24.25;;
14874;SDS011;7529;48.170;17.138;2022-11-30T07:12:15;32.28;;;26.98;;
14874;SDS011;7529;48.170;17.138;2022-11-30T07:16:26;33.10;;;25.30;;
14874;SDS011;7529;48.170;17.138;2022-11-30T07:20:40;29.83;;;26.75;;
14874;SDS011;7529;48.170;17.138;2022-11-30T07:24:51;32.50;;;28.38;;
14874;SDS011;7529;48.170;17.138;2022-11-30T07:29:21;29.52;;;26.30;;
14874;SDS011;7529;48.170;17.138;2022-11-30T07:33:33;29.75;;;26.83;;
14874;SDS011;7529;48.170;17.138;2022-11-30T07:37:45;33.33;;;29.65;;
14874;SDS011;7529;48.170;17.138;2022-11-30T07:41:56;47.13;;;34.40;;
14874;SDS011;7529;48.170;17.138;2022-11-30T07:46:13;40.80;;;35.40;;
14874;SDS011;7529;48.170;17.138;2022-11-30T07:50:25;41.53;;;36.50;;
14874;SDS011;7529;48.170;17.138;2022-11-30T07:54:37;34.28;;;30.67;;
14874;SDS011;7529;48.170;17.138;2022-11-30T07:58:49;35.60;;;30.52;;
14874;SDS011;7529;48.170;17.138;2022-11-30T08:03:03;31.60;;;28.20;;
14874;SDS011;7529;48.170;17.138;2022-11-30T08:07:15;33.10;;;29.17;;
14874;SDS011;7529;48.170;17.138;2022-11-30T08:11:30;33.20;;;27.17;;
14874;SDS011;7529;48.170;17.138;2022-11-30T08:15:43;36.20;;;27.40;;
14874;SDS011;7529;48.170;17.138;2022-11-30T08:19:56;27.02;;;24.63;;
14874;SDS011;7529;48.170;17.138;2022-11-30T08:24:08;26.05;;;23.73;;
14874;SDS011;7529;48.170;17.138;2022-11-30T08:28:23;25.30;;;22.85;;
14874;SDS011;7529;48.170;17.138;2022-11-30T08:32:35;22.85;;;20.70;;
14874;SDS011;7529;48.170;17.138;2022-11-30T08:36:47;21.95;;;20.02;;
14874;SDS011;7529;48.170;17.138;2022-11-30T08:41:01;22.52;;;20.42;;
14874;SDS011;7529;48.170;17.138;2022-11-30T08:45:14;21.45;;;19.75;;
14874;SDS011;7529;48.170;17.138;2022-11-30T08:49:25;24.20;;;22.00;;
14874;SDS011;7529;48.170;17.138;2022-11-30T08:53:37;20.42;;;18.67;;
14874;SDS011;7529;48.170;17.138;2022-11-30T08:57:48;19.00;;;17.40;;
14874;SDS011;7529;48.170;17.138;2022-11-30T09:02:00;17.55;;;15.85;;
14874;SDS011;7529;48.170;17.138;2022-11-30T09:06:12;19.55;;;17.55;;
14874;SDS011;7529;48.170;17.138;2022-11-30T09:10:25;18.77;;;17.25;;
14874;SDS011;7529;48.170;17.138;2022-11-30T09:14:37;16.33;;;15.13;;
14874;SDS011;7529;48.170;17.138;2022-11-30T09:18:49;15.93;;;14.70;;
14874;SDS011;7529;48.170;17.138;2022-11-30T09:23:01;16.23;;;14.98;;
14874;SDS011;7529;48.170;17.138;2022-11-30T09:27:12;12.35;;;11.48;;
14874;SDS011;7529;48.170;17.138;2022-11-30T09:31:25;12.52;;;11.60;;
14874;SDS011;7529;48.170;17.138;2022-11-30T09:35:38;14.98;;;13.75;;
14874;SDS011;7529;48.170;17.138;2022-11-30T09:39:50;10.90;;;10.20;;
14874;SDS011;7529;48.170;17.138;2022-11-30T09:44:08;11.82;;;11.05;;
14874;SDS011;7529;48.170;17.138;2022-11-30T09:48:54;12.45;;;11.57;;
14874;SDS011;7529;48.170;17.138;2022-11-30T09:53:19;11.27;;;10.40;;
14874;SDS011;7529;48.170;17.138;2022-11-30T10:02:00;11.77;;;10.60;;
14874;SDS011;7529;48.170;17.138;2022-11-30T10:06:42;11.05;;;9.82;;
14874;SDS011;7529;48.170;17.138;2022-11-30T10:11:15;10.07;;;9.15;;
14874;SDS011;7529;48.170;17.138;2022-11-30T10:15:54;11.98;;;11.18;;
14874;SDS011;7529;48.170;17.138;2022-11-30T10:33:45;12.20;;;11.32;;
14874;SDS011;7529;48.170;17.138;2022-11-30T10:37:59;10.82;;;10.15;;
14874;SDS011;7529;48.170;17.138;2022-11-30T10:42:48;13.93;;;12.93;;
14874;SDS011;7529;48.170;17.138;2022-11-30T10:47:13;13.70;;;12.75;;
14874;SDS011;7529;48.170;17.138;2022-11-30T10:51:29;13.13;;;12.27;;
14874;SDS011;7529;48.170;17.138;2022-11-30T10:55:44;13.13;;;12.18;;
14874;SDS011;7529;48.170;17.138;2022-11-30T11:00:13;13.25;;;12.30;;
14874;SDS011;7529;48.170;17.138;2022-11-30T11:04:37;10.75;;;9.98;;
14874;SDS011;7529;48.170;17.138;2022-11-30T11:08:50;9.07;;;8.50;;
14874;SDS011;7529;48.170;17.138;2022-11-30T11:13:02;9.05;;;8.43;;
14874;SDS011;7529;48.170;17.138;2022-11-30T11:21:29;7.97;;;7.55;;
14874;SDS011;7529;48.170;17.138;2022-11-30T11:25:40;8.43;;;7.93;;
14874;SDS011;7529;48.170;17.138;2022-11-30T11:29:57;12.80;;;9.13;;
14874;SDS011;7529;48.170;17.138;2022-11-30T11:34:22;9.00;;;8.40;;
14874;SDS011;7529;48.170;17.138;2022-11-30T11:38:43;8.95;;;8.45;;
14874;SDS011;7529;48.170;17.138;2022-11-30T11:42:57;9.23;;;8.63;;
14874;SDS011;7529;48.170;17.138;2022-11-30T11:47:19;8.18;;;7.57;;
14874;SDS011;7529;48.170;17.138;2022-11-30T11:55:45;8.35;;;7.85;;
14874;SDS011;7529;48.170;17.138;2022-11-30T12:04:42;8.35;;;7.75;;
14874;SDS011;7529;48.170;17.138;2022-11-30T12:08:57;7.75;;;7.30;;
14874;SDS011;7529;48.170;17.138;2022-11-30T12:13:14;8.40;;;7.97;;
14874;SDS011;7529;48.170;17.138;2022-11-30T12:30:45;9.40;;;8.80;;
14874;SDS011;7529;48.170;17.138;2022-11-30T13:02:19;13.02;;;11.85;;
14874;SDS011;7529;48.170;17.138;2022-11-30T13:06:45;11.90;;;11.05;;
14874;SDS011;7529;48.170;17.138;2022-11-30T13:11:12;10.77;;;10.07;;
14874;SDS011;7529;48.170;17.138;2022-11-30T13:15:44;11.70;;;10.90;;
14874;SDS011;7529;48.170;17.138;2022-11-30T13:24:24;12.10;;;11.00;;
14874;SDS011;7529;48.170;17.138;2022-11-30T13:38:18;13.20;;;12.00;;
14874;SDS011;7529;48.170;17.138;2022-11-30T13:42:32;11.82;;;11.07;;
14874;SDS011;7529;48.170;17.138;2022-11-30T13:46:50;13.10;;;12.05;;
14874;SDS011;7529;48.170;17.138;2022-11-30T13:51:03;12.95;;;12.05;;
14874;SDS011;7529;48.170;17.138;2022-11-30T13:59:47;13.52;;;12.43;;
14874;SDS011;7529;48.170;17.138;2022-11-30T14:08:37;13.18;;;12.13;;
14874;SDS011;7529;48.170;17.138;2022-11-30T14:12:55;13.02;;;12.02;;
14874;SDS011;7529;48.170;17.138;2022-11-30T14:17:15;13.75;;;12.85;;
14874;SDS011;7529;48.170;17.138;2022-11-30T14:21:32;14.52;;;13.32;;
14874;SDS011;7529;48.170;17.138;2022-11-30T14:25:47;13.32;;;12.48;;
14874;SDS011;7529;48.170;17.138;2022-11-30T14:30:03;13.40;;;12.52;;
14874;SDS011;7529;48.170;17.138;2022-11-30T14:39:01;13.20;;;12.40;;
14874;SDS011;7529;48.170;17.138;2022-11-30T14:43:13;12.02;;;11.23;;
14874;SDS011;7529;48.170;17.138;2022-11-30T14:47:31;11.35;;;10.65;;
14874;SDS011;7529;48.170;17.138;2022-11-30T14:51:47;12.02;;;11.13;;
14874;SDS011;7529;48.170;17.138;2022-11-30T14:56:05;11.60;;;11.00;;
14874;SDS011;7529;48.170;17.138;2022-11-30T15:00:19;11.77;;;11.18;;
14874;SDS011;7529;48.170;17.138;2022-11-30T15:04:31;12.20;;;11.38;;
14874;SDS011;7529;48.170;17.138;2022-11-30T15:08:47;12.35;;;11.32;;
14874;SDS011;7529;48.170;17.138;2022-11-30T15:13:04;12.38;;;11.52;;
14874;SDS011;7529;48.170;17.138;2022-11-30T15:17:16;10.10;;;9.50;;
14874;SDS011;7529;48.170;17.138;2022-11-30T15:21:29;13.85;;;12.85;;
14874;SDS011;7529;48.170;17.138;2022-11-30T15:25:42;15.50;;;14.30;;
14874;SDS011;7529;48.170;17.138;2022-11-30T15:29:57;15.95;;;14.35;;
14874;SDS011;7529;48.170;17.138;2022-11-30T15:34:19;16.73;;;15.43;;
14874;SDS011;7529;48.170;17.138;2022-11-30T15:38:36;22.23;;;20.17;;
14874;SDS011;7529;48.170;17.138;2022-11-30T15:42:48;17.13;;;15.75;;
14874;SDS011;7529;48.170;17.138;2022-11-30T15:47:00;17.02;;;15.52;;
14874;SDS011;7529;48.170;17.138;2022-11-30T15:51:15;15.93;;;14.80;;
14874;SDS011;7529;48.170;17.138;2022-11-30T16:00:24;16.98;;;15.57;;
14874;SDS011;7529;48.170;17.138;2022-11-30T16:09:16;19.35;;;17.63;;
14874;SDS011;7529;48.170;17.138;2022-11-30T16:13:30;19.08;;;15.48;;
14874;SDS011;7529;48.170;17.138;2022-11-30T16:17:42;20.23;;;18.42;;
14874;SDS011;7529;48.170;17.138;2022-11-30T16:21:53;17.42;;;15.88;;
14874;SDS011;7529;48.170;17.138;2022-11-30T16:26:08;17.23;;;15.95;;
14874;SDS011;7529;48.170;17.138;2022-11-30T16:30:24;16.05;;;14.90;;
14874;SDS011;7529;48.170;17.138;2022-11-30T16:34:36;19.23;;;17.73;;
14874;SDS011;7529;48.170;17.138;2022-11-30T16:38:50;17.65;;;16.35;;
14874;SDS011;7529;48.170;17.138;2022-11-30T16:43:02;16.27;;;14.98;;
14874;SDS011;7529;48.170;17.138;2022-11-30T16:47:15;16.45;;;15.15;;
14874;SDS011;7529;48.170;17.138;2022-11-30T16:51:27;14.55;;;13.55;;
14874;SDS011;7529;48.170;17.138;2022-11-30T16:55:44;13.73;;;12.80;;
14874;SDS011;7529;48.170;17.138;2022-11-30T16:59:57;16.00;;;14.85;;
14874;SDS011;7529;48.170;17.138;2022-11-30T17:08:21;22.85;;;15.77;;
14874;SDS011;7529;48.170;17.138;2022-11-30T17:12:33;16.45;;;14.82;;
14874;SDS011;7529;48.170;17.138;2022-11-30T17:16:45;17.10;;;15.63;;
14874;SDS011;7529;48.170;17.138;2022-11-30T17:20:57;16.33;;;14.63;;
14874;SDS011;7529;48.170;17.138;2022-11-30T17:25:13;17.20;;;15.93;;
14874;SDS011;7529;48.170;17.138;2022-11-30T17:29:26;15.65;;;14.27;;
14874;SDS011;7529;48.170;17.138;2022-11-30T17:33:38;14.93;;;13.82;;
14874;SDS011;7529;48.170;17.138;2022-11-30T17:37:51;16.05;;;14.82;;
14874;SDS011;7529;48.170;17.138;2022-11-30T17:42:03;15.38;;;14.23;;
14874;SDS011;7529;48.170;17.138;2022-11-30T17:46:16;17.40;;;16.02;;
14874;SDS011;7529;48.170;17.138;2022-11-30T17:50:28;16.60;;;14.98;;
14874;SDS011;7529;48.170;17.138;2022-11-30T17:54:40;17.05;;;15.50;;
14874;SDS011;7529;48.170;17.138;2022-11-30T17:58:51;19.85;;;18.25;;
14874;SDS011;7529;48.170;17.138;2022-11-30T18:03:03;18.88;;;17.17;;
14874;SDS011;7529;48.170;17.138;2022-11-30T18:07:15;18.20;;;16.60;;
14874;SDS011;7529;48.170;17.138;2022-11-30T18:11:26;20.38;;;17.15;;
14874;SDS011;7529;48.170;17.138;2022-11-30T18:15:38;17.98;;;16.58;;
14874;SDS011;7529;48.170;17.138;2022-11-30T18:19:50;15.95;;;14.75;;
14874;SDS011;7529;48.170;17.138;2022-11-30T18:24:02;20.13;;;17.75;;
14874;SDS011;7529;48.170;17.138;2022-11-30T18:28:14;28.52;;;25.73;;
14874;SDS011;7529;48.170;17.138;2022-11-30T18:32:26;17.65;;;16.30;;
14874;SDS011;7529;48.170;17.138;2022-11-30T18:36:39;19.85;;;17.98;;
14874;SDS011;7529;48.170;17.138;2022-11-30T18:40:50;23.08;;;21.20;;
14874;SDS011;7529;48.170;17.138;2022-11-30T18:45:02;21.05;;;19.30;;
14874;SDS011;7529;48.170;17.138;2022-11-30T18:49:15;26.88;;;23.77;;
14874;SDS011;7529;48.170;17.138;2022-11-30T18:53:27;21.23;;;19.50;;
14874;SDS011;7529;48.170;17.138;2022-11-30T18:57:38;19.08;;;17.58;;
14874;SDS011;7529;48.170;17.138;2022-11-30T19:01:50;18.77;;;17.23;;
14874;SDS011;7529;48.170;17.138;2022-11-30T19:06:03;49.78;;;46.17;;
14874;SDS011;7529;48.170;17.138;2022-11-30T19:10:16;54.25;;;50.05;;
14874;SDS011;7529;48.170;17.138;2022-11-30T19:14:27;54.90;;;51.33;;
14874;SDS011;7529;48.170;17.138;2022-11-30T19:18:40;58.53;;;54.58;;
14874;SDS011;7529;48.170;17.138;2022-11-30T19:22:54;54.20;;;50.00;;
14874;SDS011;7529;48.170;17.138;2022-11-30T19:27:06;55.90;;;52.22;;
14874;SDS011;7529;48.170;17.138;2022-11-30T19:31:18;58.67;;;54.75;;
14874;SDS011;7529;48.170;17.138;2022-11-30T19:35:30;54.90;;;50.55;;
14874;SDS011;7529;48.170;17.138;2022-11-30T19:39:42;58.78;;;54.42;;
14874;SDS011;7529;48.170;17.138;2022-11-30T19:43:55;48.25;;;44.78;;
14874;SDS011;7529;48.170;17.138;2022-11-30T19:48:08;53.90;;;49.67;;
14874;SDS011;7529;48.170;17.138;2022-11-30T19:52:20;51.17;;;47.67;;
14874;SDS011;7529;48.170;17.138;2022-11-30T19:56:32;49.83;;;46.42;;
14874;SDS011;7529;48.170;17.138;2022-11-30T20:00:45;55.42;;;51.47;;
14874;SDS011;7529;48.170;17.138;2022-11-30T20:04:57;47.85;;;44.47;;
14874;SDS011;7529;48.170;17.138;2022-11-30T20:09:09;60.05;;;55.55;;
14874;SDS011;7529;48.170;17.138;2022-11-30T20:13:21;63.00;;;58.78;;
14874;SDS011;7529;48.170;17.138;2022-11-30T20:17:33;56.80;;;53.25;;
14874;SDS011;7529;48.170;17.138;2022-11-30T20:21:45;57.95;;;53.72;;
14874;SDS011;7529;48.170;17.138;2022-11-30T20:25:59;58.50;;;54.40;;
14874;SDS011;7529;48.170;17.138;2022-11-30T20:30:11;59.95;;;55.58;;
14874;SDS011;7529;48.170;17.138;2022-11-30T20:34:23;55.85;;;51.83;;
14874;SDS011;7529;48.170;17.138;2022-11-30T20:38:36;57.90;;;53.88;;
14874;SDS011;7529;48.170;17.138;2022-11-30T20:42:50;59.58;;;55.40;;
14874;SDS011;7529;48.170;17.138;2022-11-30T20:47:02;60.55;;;55.97;;
14874;SDS011;7529;48.170;17.138;2022-11-30T20:51:15;63.15;;;58.42;;
14874;SDS011;7529;48.170;17.138;2022-11-30T20:55:28;63.08;;;58.50;;
14874;SDS011;7529;48.170;17.138;2022-11-30T20:59:40;61.10;;;55.97;;
14874;SDS011;7529;48.170;17.138;2022-11-30T21:03:51;57.65;;;53.17;;
14874;SDS011;7529;48.170;17.138;2022-11-30T21:08:05;55.15;;;51.33;;
14874;SDS011;7529;48.170;17.138;2022-11-30T21:12:17;56.42;;;51.95;;
14874;SDS011;7529;48.170;17.138;2022-11-30T21:16:30;57.83;;;53.00;;
14874;SDS011;7529;48.170;17.138;2022-11-30T21:20:42;57.38;;;53.08;;
14874;SDS011;7529;48.170;17.138;2022-11-30T21:24:54;57.33;;;53.20;;
14874;SDS011;7529;48.170;17.138;2022-11-30T21:29:08;57.13;;;52.75;;
14874;SDS011;7529;48.170;17.138;2022-11-30T21:33:22;58.28;;;53.20;;
14874;SDS011;7529;48.170;17.138;2022-11-30T21:37:34;53.38;;;49.20;;
14874;SDS011;7529;48.170;17.138;2022-11-30T21:41:45;52.85;;;48.55;;
14874;SDS011;7529;48.170;17.138;2022-11-30T21:50:13;54.33;;;49.75;;
14874;SDS011;7529;48.170;17.138;2022-11-30T21:54:26;52.03;;;47.90;;
14874;SDS011;7529;48.170;17.138;2022-11-30T21:58:38;45.58;;;41.70;;
14874;SDS011;7529;48.170;17.138;2022-11-30T22:02:58;38.45;;;35.25;;
14874;SDS011;7529;48.170;17.138;2022-11-30T22:08:04;35.13;;;32.13;;
14874;SDS011;7529;48.170;17.138;2022-11-30T22:12:16;50.15;;;45.88;;
14874;SDS011;7529;48.170;17.138;2022-11-30T22:16:27;54.42;;;50.22;;
14874;SDS011;7529;48.170;17.138;2022-11-30T22:20:39;53.47;;;48.72;;
14874;SDS011;7529;48.170;17.138;2022-11-30T22:24:51;57.40;;;53.05;;
14874;SDS011;7529;48.170;17.138;2022-11-30T22:29:05;57.55;;;52.80;;
14874;SDS011;7529;48.170;17.138;2022-11-30T22:33:21;60.28;;;55.28;;
14874;SDS011;7529;48.170;17.138;2022-11-30T22:37:33;55.42;;;51.17;;
14874;SDS011;7529;48.170;17.138;2022-11-30T22:41:45;53.92;;;49.85;;
14874;SDS011;7529;48.170;17.138;2022-11-30T22:46:03;45.45;;;41.42;;
14874;SDS011;7529;48.170;17.138;2022-11-30T22:50:18;51.13;;;47.08;;
14874;SDS011;7529;48.170;17.138;2022-11-30T22:54:30;57.60;;;53.20;;
14874;SDS011;7529;48.170;17.138;2022-11-30T22:58:42;57.88;;;53.08;;
14874;SDS011;7529;48.170;17.138;2022-11-30T23:02:59;62.53;;;57.78;;
14874;SDS011;7529;48.170;17.138;2022-11-30T23:07:10;48.67;;;44.42;;
14874;SDS011;7529;48.170;17.138;2022-11-30T23:11:23;43.15;;;38.65;;
14874;SDS011;7529;48.170;17.138;2022-11-30T23:15:37;47.15;;;42.35;;
14874;SDS011;7529;48.170;17.138;2022-11-30T23:19:49;51.00;;;46.08;;
14874;SDS011;7529;48.170;17.138;2022-11-30T23:24:01;50.35;;;45.80;;
14874;SDS011;7529;48.170;17.138;2022-11-30T23:28:14;55.38;;;49.38;;
14874;SDS011;7529;48.170;17.138;2022-11-30T23:32:26;55.60;;;49.72;;
14874;SDS011;7529;48.170;17.138;2022-11-30T23:36:39;55.97;;;50.10;;
14874;SDS011;7529;48.170;17.138;2022-11-30T23:40:51;44.38;;;37.70;;
14874;SDS011;7529;48.170;17.138;2022-11-30T23:45:04;48.28;;;39.58;;
14874;SDS011;7529;48.170;17.138;2022-11-30T23:49:17;58.80;;;53.38;;
14874;SDS011;7529;48.170;17.138;2022-11-30T23:53:29;64.82;;;58.55;;
14874;SDS011;7529;48.170;17.138;2022-11-30T23:57:41;65.75;;;58.90;;
